• Join FlightAware (Why Join?)
  • Login
  • US Flag 
09:03PM EDT


 

Airport Tracker/Info


-or-


 

Live Flight TrackerFlight Track Log ✈ SWA3206 ✈ 06-May-2013 ✈ KPHL - KMDW

Flight Track Log - Related Links

Times and Time Zones

All times are in EDT time to prevent confusion due to time zone crossing. See the SWA3206 flight status page for this flight to view local times or setup timezone preferences in your user account.

Time Position Orientation Groundspeed Altitude Reporting Facility
EDT Latitude Longitude Course Direction KTS MPH feet Rate Location/Type
11:17AM 39.8833 -75.2167 72° East 154 177 800  Level Philadelphia TRACON
11:18AM 39.9000 -75.1500 72° East 214 246 2,900 2,280 Climbing Philadelphia TRACON
11:19AM 39.9333 -75.1000 49° Northeast 235 270 5,900 2,700 Climbing Philadelphia TRACON
11:20AM 40.0000 -75.1167 349° North 290 334 8,300 2,040 Climbing Philadelphia TRACON
11:21AM 40.0500 -75.2167 303° West 305 351 10,000 900 Climbing Philadelphia TRACON
11:22AM 40.0833 -75.3000 298° West 354 407 10,000 1,080 Level Philadelphia TRACON
11:23AM 40.1375 -75.3975 306° West 375 432 12,000 2,400 Climbing New York Center
11:24AM 40.1972 -75.5183 303° West 375 432 15,200 1,620 Climbing New York Center
11:26AM 40.3364 -75.7322 311° West 386 444 17,000 1,200 Climbing New York Center
11:27AM 40.3992 -75.8264 311° West 381 438 18,800 2,340 Climbing New York Center
11:29AM 40.4513 -75.9922 281° West  Level FlightAware Approximate
11:29AM 40.4742 -76.1131 281° West 386 444 24,200  Level New York Center
11:30AM 40.4981 -76.2706 281° West 413 475 26,300 2,040 Climbing New York Center
11:31AM 40.5242 -76.4256 283° West 433 498 28,300 1,980 Climbing New York Center
11:32AM 40.5436 -76.5828 279° West 443 510 30,400 2,100 Climbing New York Center
11:33AM 40.5672 -76.7378 281° West 443 510 32,600 1,380 Climbing New York Center
11:35AM 40.6311 -76.9050 290° West  Level FlightAware Approximate
11:36AM 40.6339 -77.2114 278° West 433 498 36,000  Level New York Center
11:37AM 40.6589 -77.3644 282° West 433 498 37,200 1,080 Climbing New York Center
11:38AM 40.6814 -77.5225 281° West 433 498 38,200 660 Climbing New York Center
11:41AM 40.7251 -77.8254 281° West  Level FlightAware Approximate
11:41AM 40.7447 -78.0014 281° West 447 514 40,000  Level Cleveland Center
11:42AM 40.7340 -77.8894 278° West  Level FlightAware Approximate
11:42AM 40.7647 -78.1597 280° West 447 514 40,000  Level Cleveland Center
11:43AM 40.7869 -78.3178 281° West 447 514 40,000  Level Cleveland Center
11:44AM 40.8067 -78.4764 279° West 447 514 40,000  Level Cleveland Center
11:45AM 40.8261 -78.6375 279° West 447 514 40,000  Level Cleveland Center
11:46AM 40.8519 -78.8125 281° West 447 514 40,000  Level Cleveland Center
11:47AM 40.8708 -78.9686 279° West 441 507 40,000  Level Cleveland Center
11:48AM 40.8917 -79.1300 280° West 447 514 40,000  Level Cleveland Center
11:49AM 40.9103 -79.2892 279° West 447 514 40,000  Level Cleveland Center
11:51AM 40.9298 -79.4575 279° West  Level FlightAware Approximate
11:52AM 40.9711 -79.7747 279° West 447 514 40,000  Level Cleveland Center
11:53AM 40.9889 -79.9339 278° West 447 514 40,000  Level Cleveland Center
11:55AM 41.0118 -80.1017 280° West  Level Estimated
11:56AM 41.0428 -80.4233 280° West 447 514 40,000  Level Cleveland Center
11:57AM 41.0594 -80.5831 278° West 447 514 40,000  Level Cleveland Center
11:58AM 41.0404 -80.4552 279° West  Level FlightAware Approximate
11:59AM 41.0815 -80.7488 280° West  Level Estimated
11:59AM 41.0964 -80.9083 280° West 447 514 40,000  Level Cleveland Center
12:00PM 41.1125 -81.0764 277° West 447 514 40,000  Level Cleveland Center
12:01PM 41.1306 -81.2475 278° West 464 534 40,000  Level Cleveland Center
12:02PM 41.1424 -81.0965 280° West  Level Estimated
12:04PM 41.1611 -81.5602 278° West  Level FlightAware Approximate
12:04PM 41.1808 -81.7308 278° West 464 534 40,000  Level Cleveland Center
12:05PM 41.1978 -81.8994 278° West 464 534 40,000  Level Cleveland Center
12:07PM 41.2127 -82.0712 277° West  Level FlightAware Approximate
12:08PM 41.2447 -82.4222 277° West 471 542 40,000  Level Cleveland Center
12:10PM 41.2663 -82.5953 279° West  Level Estimated
12:11PM 41.2906 -82.8644 279° West 490 564 40,000  Level Chicago Center
12:11PM 41.2917 -82.9350 271° West 465 535 40,000  Level Cleveland Center
12:12PM 41.3067 -83.1069 277° West 465 535 40,000  Level Cleveland Center
12:13PM 41.3178 -83.2622 275° West 465 535 40,000  Level Cleveland Center
12:14PM 41.2995 -83.0884 277° West  Level FlightAware Approximate
12:14PM 41.3344 -83.4372 277° West 465 535 40,000  Level Cleveland Center
12:15PM 41.3486 -83.6119 276° West 472 543 40,000  Level Cleveland Center
12:16PM 41.3628 -83.7842 276° West 477 549 40,000  Level Cleveland Center
12:17PM 41.3764 -83.9564 276° West 477 549 40,000 -1,980 Level Cleveland Center
12:20PM 41.4167 -84.4511 276° West 468 539 32,400 -2,580 Descending Chicago Center
12:21PM 41.4308 -84.6283 276° West 480 552 30,000 -780 Descending Chicago Center
12:23PM 41.4380 -84.8086 275° West  Level FlightAware Approximate
12:23PM 41.4583 -85.0111 275° West 474 545 30,000  Level Chicago Center
12:25PM 41.4661 -85.1814 274° West  Level FlightAware Approximate
12:26PM 41.4919 -85.5161 270° West 433 498 24,000  Level Chicago Center
12:28PM 41.5136 -85.6695 275° West  Level Estimated
12:29PM 41.5117 -85.8219 275° West 405 466 20,600  Level Chicago Center
12:30PM 41.5203 -85.9703 274° West 396 456 19,000 -2,280 Descending Chicago Center
12:32PM 41.5167 -86.1994 270° West  Level FlightAware Approximate
12:32PM 41.5233 -86.2900 271° West 391 450 13,700  Level Chicago Center
12:33PM 41.5225 -86.4269 270° West 372 428 12,300 -1,200 Descending Chicago Center
12:35PM 41.5208 -86.6953 270° West 361 415 10,000 -1,020 Descending Chicago Center
12:36PM 41.5183 -86.8256 269° West 322 371 9,200 -960 Descending Chicago Center
12:38PM 41.5167 -87.0833 270° West 295 339 6,900 -1,020 Descending Chicago TRACON
12:39PM 41.5175 -87.1567 271° West 291 335 6,200 -720 Descending Chicago Center
12:40PM 41.5303 -87.2819 278° West 285 328 5,600 -780 Descending Chicago Center
12:41PM 41.5375 -87.3842 275° West 282 325 4,600 -780 Descending Chicago Center
12:42PM 41.5467 -87.4875 277° West 282 325 4,000 -300 Descending Chicago Center
12:43PM 41.5544 -87.5881 276° West 279 321 4,000  Level Chicago Center
12:45PM 41.5697 -87.8064 275° West 270 311 4,000 -240 Level Chicago Center
12:46PM 41.5881 -87.8736 290° West 230 265 3,400 -540 Descending Chicago Center
12:48PM 41.7210 -87.7923 25° Northeast  Level Estimated
12:48PM 41.6633 -87.9039 25° Northeast 179 206 2,500  Level Chicago Center
12:49PM 41.7011 -87.8600 41° Northeast 160 184 2,500 -180 Level Chicago Center
12:50PM 41.7167 -87.8333 52° Northeast 129 148 2,200 -540 Descending Chicago TRACON
12:51PM 41.7500 -87.8000 37° Northeast 126 145 1,600 -600 Descending Chicago TRACON
12:54PM 41.7833 -87.7500 43° Northeast  Level FlightAware Approximate